Time;durP1;ratioP1;P1;durP2;ratioP2;P2;SDS_P1;SDS_P2;PMS_P1;PMS_P2;Temp;Humidity;BMP_temperature;BMP_pressure;BME280_temperature;BME280_humidity;BME280_pressure;Samples;Min_cycle;Max_cycle;Signal;HPM_P1;HPM_P2
2022/10/17 00:01:00;;;;;;;93.40;45.92;;;16.40;99.90;;;;;;4893284;29;20555;-76
2022/10/17 00:03:25;;;;;;;91.55;45.88;;;16.40;99.90;;;;;;4898657;29;20034;-76
2022/10/17 00:05:51;;;;;;;91.85;46.85;;;16.40;99.90;;;;;;4900308;29;20483;-77
2022/10/17 00:08:17;;;;;;;90.72;47.03;;;16.40;99.90;;;;;;4901793;29;20032;-76
2022/10/17 00:10:44;;;;;;;93.10;46.22;;;16.40;99.90;;;;;;4885289;29;20040;-76
2022/10/17 00:13:10;;;;;;;91.90;45.70;;;16.40;99.90;;;;;;4903955;29;20071;-77
2022/10/17 00:15:36;;;;;;;93.35;48.35;;;16.40;99.90;;;;;;4904086;29;20509;-78
2022/10/17 00:18:02;;;;;;;89.68;46.33;;;16.50;99.90;;;;;;4903864;29;20029;-77
2022/10/17 00:20:29;;;;;;;92.60;48.28;;;16.40;99.90;;;;;;4903170;29;20506;-78
2022/10/17 00:22:55;;;;;;;93.35;47.90;;;16.40;99.90;;;;;;4903251;29;20055;-78
2022/10/17 00:25:21;;;;;;;90.13;48.58;;;16.40;99.90;;;;;;4903397;29;20456;-77
2022/10/17 00:27:47;;;;;;;95.20;47.67;;;16.30;99.90;;;;;;4902876;29;20052;-78
2022/10/17 00:30:14;;;;;;;92.75;46.45;;;16.40;99.90;;;;;;4885266;29;20064;-77
2022/10/17 00:32:40;;;;;;;85.43;46.22;;;16.30;99.90;;;;;;4885738;29;20033;-77
2022/10/17 00:35:07;;;;;;;100.25;47.50;;;16.30;99.90;;;;;;4902050;29;20032;-77
2022/10/17 00:37:34;;;;;;;96.28;47.63;;;16.30;99.90;;;;;;4884937;29;20028;-78
2022/10/17 00:40:00;;;;;;;89.88;46.30;;;16.30;99.90;;;;;;4901398;29;20559;-78
2022/10/17 00:42:26;;;;;;;93.20;46.53;;;16.30;99.90;;;;;;4901178;29;20084;-78
2022/10/17 00:45:25;;;;;;;90.55;46.88;;;16.30;99.90;;;;;;4901318;29;20487;-78
2022/10/17 00:47:57;;;;;;;93.85;48.72;;;16.30;99.90;;;;;;4901383;29;20493;-78
2022/10/17 00:50:26;;;;;;;85.28;47.33;;;16.40;99.90;;;;;;4901380;29;20056;-78
2022/10/17 00:52:55;;;;;;;92.20;46.53;;;16.30;99.90;;;;;;4901917;29;20080;-78
2022/10/17 00:55:29;;;;;;;95.43;47.38;;;16.40;99.90;;;;;;4902724;29;20028;-78
2022/10/17 00:57:58;;;;;;;89.75;45.33;;;16.30;99.90;;;;;;4885619;29;20028;-78
2022/10/17 01:00:24;;;;;;;82.95;45.40;;;16.30;99.90;;;;;;4885893;29;20056;-78
2022/10/17 01:02:50;;;;;;;91.40;46.17;;;16.30;99.90;;;;;;4902537;29;20475;-78
2022/10/17 01:05:18;;;;;;;87.18;46.88;;;16.30;99.90;;;;;;4902750;29;20045;-78
2022/10/17 01:07:44;;;;;;;86.13;45.15;;;16.30;99.90;;;;;;4902634;29;20051;-78
2022/10/17 01:10:11;;;;;;;84.05;44.33;;;16.20;99.90;;;;;;4885517;29;20411;-78
2022/10/17 01:12:37;;;;;;;89.32;44.05;;;16.20;99.90;;;;;;4902718;29;20020;-78
2022/10/17 01:15:12;;;;;;;83.53;44.50;;;16.20;99.90;;;;;;4899375;29;20059;-78
2022/10/17 01:17:56;;;;;;;93.80;45.88;;;16.20;99.90;;;;;;4899583;29;20491;-77
2022/10/17 01:21:00;;;;;;;89.28;44.88;;;16.20;99.90;;;;;;4882636;29;20047;-78
2022/10/17 01:23:27;;;;;;;81.97;43.22;;;16.20;99.90;;;;;;4898591;29;20033;-78
2022/10/17 01:26:18;;;;;;;91.90;44.92;;;16.10;99.90;;;;;;4899640;29;20024;-78
2022/10/17 01:29:11;;;;;;;88.68;45.95;;;16.10;99.90;;;;;;4899286;29;20040;-78
2022/10/17 01:31:43;;;;;;;88.97;45.60;;;16.10;99.90;;;;;;4899356;29;20032;-77
2022/10/17 01:34:20;;;;;;;90.97;45.38;;;16.10;99.90;;;;;;4882384;29;20041;-78
2022/10/17 01:37:09;;;;;;;86.05;45.97;;;16.10;99.90;;;;;;4899235;29;20020;-77
2022/10/17 01:39:35;;;;;;;90.75;45.00;;;16.10;99.90;;;;;;4872441;29;20036;-77
2022/10/17 01:42:12;;;;;;;86.93;44.40;;;16.00;99.90;;;;;;4899173;29;20039;-78
2022/10/17 01:44:51;;;;;;;86.10;45.25;;;16.00;99.90;;;;;;4899211;29;20483;-78
2022/10/17 01:47:21;;;;;;;83.65;44.67;;;16.00;99.90;;;;;;4899228;29;20506;-77
2022/10/17 01:49:50;;;;;;;85.45;44.97;;;16.00;99.90;;;;;;4898977;29;20126;-77
2022/10/17 01:52:24;;;;;;;82.95;43.22;;;16.00;99.90;;;;;;4899076;29;20024;-77
2022/10/17 01:55:02;;;;;;;86.00;45.35;;;15.90;99.90;;;;;;4899027;29;20072;-78
2022/10/17 01:57:40;;;;;;;93.53;46.08;;;15.90;99.90;;;;;;4898927;29;20027;-77
2022/10/17 02:00:12;;;;;;;87.95;44.25;;;15.90;99.90;;;;;;4898870;29;20075;-77
2022/10/17 02:02:40;;;;;;;89.25;45.05;;;15.90;99.90;;;;;;4898852;29;20411;-77
2022/10/17 02:05:07;;;;;;;86.60;45.08;;;15.90;99.90;;;;;;4898783;29;20104;-77
2022/10/17 02:07:32;;;;;;;85.43;44.70;;;15.90;99.90;;;;;;4898732;29;20048;-78
2022/10/17 02:09:58;;;;;;;82.43;45.33;;;15.90;99.90;;;;;;4881945;29;20024;-78
2022/10/17 02:12:34;;;;;;;88.43;43.72;;;16.00;99.90;;;;;;4898636;29;20395;-77
2022/10/17 02:15:51;;;;;;;88.90;43.53;;;16.00;99.90;;;;;;4898648;29;20025;-77
2022/10/17 02:18:46;;;;;;;83.25;43.17;;;16.00;99.90;;;;;;4898595;29;20484;-77
2022/10/17 02:21:23;;;;;;;87.40;45.17;;;16.00;99.90;;;;;;4898654;29;20031;-78
2022/10/17 02:24:26;;;;;;;78.03;42.90;;;15.90;99.90;;;;;;4898476;29;20037;-77
2022/10/17 02:27:12;;;;;;;86.30;44.03;;;15.90;99.90;;;;;;4788935;29;20035;-78
2022/10/17 02:29:57;;;;;;;81.25;43.30;;;15.90;99.90;;;;;;4891620;29;20040;-78
2022/10/17 02:32:34;;;;;;;87.85;44.03;;;15.90;99.90;;;;;;4898252;29;20028;-78
2022/10/17 02:35:02;;;;;;;88.80;44.38;;;15.90;99.90;;;;;;4898403;29;20029;-77
2022/10/17 02:37:29;;;;;;;79.30;42.22;;;15.90;99.90;;;;;;4898205;29;20036;-78
2022/10/17 02:39:58;;;;;;;87.00;43.90;;;15.90;99.90;;;;;;4898064;29;20047;-77
2022/10/17 02:42:25;;;;;;;88.47;43.88;;;15.90;99.90;;;;;;4897814;29;20039;-77
2022/10/17 02:44:52;;;;;;;82.97;42.28;;;15.90;99.90;;;;;;4898124;29;20462;-77
2022/10/17 02:47:25;;;;;;;85.93;43.95;;;15.90;99.90;;;;;;4898131;29;20081;-77
2022/10/17 02:49:54;;;;;;;83.55;43.08;;;15.90;99.90;;;;;;4897964;29;20452;-77
2022/10/17 02:52:43;;;;;;;81.50;43.65;;;15.80;99.90;;;;;;4897810;29;20029;-77
2022/10/17 02:55:27;;;;;;;86.47;43.85;;;15.80;99.90;;;;;;4897939;29;20059;-78
2022/10/17 02:57:57;;;;;;;82.85;44.22;;;15.80;99.90;;;;;;4898014;29;20060;-77
2022/10/17 03:00:25;;;;;;;85.38;43.85;;;15.80;99.90;;;;;;4897628;29;20447;-77
2022/10/17 03:02:52;;;;;;;84.20;42.95;;;15.80;99.90;;;;;;4897625;29;20479;-77
2022/10/17 03:05:23;;;;;;;84.57;44.33;;;15.80;99.90;;;;;;4897657;29;20032;-78
2022/10/17 03:07:49;;;;;;;87.85;43.88;;;15.80;99.90;;;;;;4897562;29;20056;-78
2022/10/17 03:10:15;;;;;;;82.50;42.97;;;15.80;99.90;;;;;;4897825;29;20020;-77
2022/10/17 03:12:41;;;;;;;83.05;43.80;;;15.80;99.90;;;;;;4880848;29;20401;-77
2022/10/17 03:15:07;;;;;;;91.40;44.15;;;15.70;99.90;;;;;;4897436;29;20521;-78
2022/10/17 03:17:33;;;;;;;84.78;42.50;;;15.70;99.90;;;;;;4897424;29;20108;-77
2022/10/17 03:19:59;;;;;;;86.40;43.22;;;15.70;99.90;;;;;;4897362;29;20039;-78
2022/10/17 03:22:25;;;;;;;79.93;42.70;;;15.60;99.90;;;;;;4880687;29;20024;-78
2022/10/17 03:24:50;;;;;;;89.22;43.15;;;15.70;99.90;;;;;;4897343;29;20024;-77
2022/10/17 03:27:16;;;;;;;75.60;41.15;;;15.60;99.90;;;;;;4897344;29;20017;-78
2022/10/17 03:29:42;;;;;;;89.65;45.33;;;15.60;99.90;;;;;;4897306;29;20060;-78
2022/10/17 03:32:07;;;;;;;84.93;43.83;;;15.70;99.90;;;;;;4897230;29;20040;-77
2022/10/17 03:34:33;;;;;;;87.53;43.42;;;15.70;99.90;;;;;;4897258;29;20029;-78
2022/10/17 03:36:59;;;;;;;91.38;45.88;;;15.70;99.90;;;;;;4896642;29;20506;-78
2022/10/17 03:39:25;;;;;;;84.22;42.35;;;15.60;99.90;;;;;;4897016;29;20080;-78
2022/10/17 03:41:50;;;;;;;81.70;42.92;;;15.60;99.90;;;;;;4880452;29;20029;-78
2022/10/17 03:44:16;;;;;;;83.45;44.25;;;15.60;99.90;;;;;;4897156;29;20025;-78
2022/10/17 03:46:42;;;;;;;86.30;44.72;;;15.60;99.90;;;;;;4897102;29;20033;-78
2022/10/17 03:49:10;;;;;;;79.80;44.20;;;15.70;99.90;;;;;;4897198;29;20024;-78
2022/10/17 03:51:36;;;;;;;78.93;44.45;;;15.60;99.90;;;;;;4897088;29;20435;-78
2022/10/17 03:54:02;;;;;;;83.50;44.75;;;15.70;99.90;;;;;;4880137;29;20036;-78
2022/10/17 03:56:28;;;;;;;82.15;42.83;;;15.70;99.90;;;;;;4896936;29;20398;-77
2022/10/17 03:58:54;;;;;;;85.65;44.38;;;15.70;99.90;;;;;;4896859;29;20032;-78
2022/10/17 04:01:20;;;;;;;89.00;46.45;;;15.70;99.90;;;;;;4880292;29;20041;-78
2022/10/17 04:03:51;;;;;;;86.07;46.17;;;15.70;99.90;;;;;;4896926;29;20024;-78
2022/10/17 04:06:17;;;;;;;82.28;43.70;;;15.70;99.90;;;;;;4879959;29;20518;-78
2022/10/17 04:08:43;;;;;;;90.95;46.78;;;15.80;99.90;;;;;;4896803;29;20028;-78
2022/10/17 04:11:13;;;;;;;87.13;45.28;;;15.80;99.90;;;;;;4880089;29;20039;-78
2022/10/17 04:13:40;;;;;;;89.32;44.17;;;15.90;99.90;;;;;;4896789;29;20372;-78
2022/10/17 04:16:11;;;;;;;90.05;45.22;;;15.90;99.90;;;;;;4880090;29;20052;-78
2022/10/17 04:18:36;;;;;;;91.47;45.53;;;15.90;99.90;;;;;;4896730;29;20123;-78
2022/10/17 04:21:04;;;;;;;90.63;45.60;;;15.90;99.90;;;;;;4896747;29;20112;-77
2022/10/17 04:23:29;;;;;;;82.53;44.22;;;15.90;99.90;;;;;;4896676;29;20033;-78
2022/10/17 04:25:56;;;;;;;82.18;43.90;;;15.90;99.90;;;;;;4879965;29;20035;-78
2022/10/17 04:28:26;;;;;;;88.45;45.13;;;15.90;99.90;;;;;;4896761;29;20032;-77
2022/10/17 04:31:00;;;;;;;85.10;44.22;;;15.90;99.90;;;;;;4896775;29;20036;-77
2022/10/17 04:33:27;;;;;;;81.80;43.78;;;15.90;99.90;;;;;;4879778;29;20043;-77
2022/10/17 04:36:01;;;;;;;87.15;44.55;;;15.90;99.90;;;;;;4896541;29;20111;-77
2022/10/17 04:38:28;;;;;;;84.95;43.58;;;15.90;99.90;;;;;;4896830;29;20033;-77
2022/10/17 04:40:56;;;;;;;86.68;45.22;;;15.90;99.90;;;;;;4896671;29;20029;-78
2022/10/17 04:43:21;;;;;;;81.80;43.83;;;15.90;99.90;;;;;;4894307;29;20064;-77
2022/10/17 04:45:47;;;;;;;87.63;45.75;;;15.90;99.90;;;;;;4896678;29;20079;-78
2022/10/17 04:48:13;;;;;;;81.80;43.05;;;15.90;99.90;;;;;;4896518;29;20035;-78
2022/10/17 04:50:39;;;;;;;82.93;43.78;;;15.90;99.90;;;;;;4881918;29;20047;-78
2022/10/17 04:53:05;;;;;;;82.00;42.13;;;15.90;99.90;;;;;;4900097;29;20486;-77
2022/10/17 04:55:30;;;;;;;77.93;43.42;;;15.80;99.90;;;;;;4900100;29;20016;-78
2022/10/17 04:57:56;;;;;;;83.22;43.97;;;15.80;99.90;;;;;;4899991;29;20029;-77
2022/10/17 05:00:25;;;;;;;85.65;44.03;;;15.90;99.90;;;;;;4900016;29;20032;-78
2022/10/17 05:02:52;;;;;;;86.13;43.60;;;15.90;99.90;;;;;;4899785;29;20024;-77
2022/10/17 05:05:17;;;;;;;90.07;44.85;;;15.90;99.90;;;;;;4899778;29;20028;-77
2022/10/17 05:07:43;;;;;;;78.68;43.05;;;15.90;99.90;;;;;;4899605;29;20386;-78
2022/10/17 05:10:09;;;;;;;85.60;44.33;;;15.80;99.90;;;;;;4899268;29;20029;-78
2022/10/17 05:12:35;;;;;;;83.90;42.08;;;15.80;99.90;;;;;;4905744;29;20368;-78
2022/10/17 05:15:00;;;;;;;83.07;43.90;;;15.80;99.90;;;;;;4908600;29;20060;-78
2022/10/17 05:17:26;;;;;;;83.20;44.50;;;15.80;99.90;;;;;;4913125;29;20029;-78
2022/10/17 05:19:52;;;;;;;85.90;42.83;;;15.80;99.90;;;;;;4904387;29;20025;-78
2022/10/17 05:22:17;;;;;;;85.72;44.30;;;15.80;99.90;;;;;;4892169;29;20027;-78
2022/10/17 05:24:43;;;;;;;89.35;46.28;;;15.80;99.90;;;;;;4913789;29;20542;-77
2022/10/17 05:27:09;;;;;;;86.88;43.97;;;15.80;99.90;;;;;;4898148;29;20020;-78
2022/10/17 05:29:34;;;;;;;91.40;46.03;;;15.90;99.90;;;;;;4904000;29;20395;-78
2022/10/17 05:32:00;;;;;;;85.18;43.70;;;15.90;99.90;;;;;;4907987;29;20016;-78
2022/10/17 05:34:26;;;;;;;84.60;44.00;;;15.90;99.90;;;;;;4909941;29;20119;-78
2022/10/17 05:36:51;;;;;;;87.43;45.13;;;15.90;99.90;;;;;;4899022;29;20032;-77
2022/10/17 05:39:18;;;;;;;83.07;44.28;;;16.00;99.90;;;;;;4890703;29;20024;-78
2022/10/17 05:41:45;;;;;;;87.32;44.63;;;16.00;99.90;;;;;;4909666;29;20027;-78
2022/10/17 05:44:12;;;;;;;84.07;43.45;;;15.90;99.90;;;;;;4895504;29;20072;-77
2022/10/17 05:46:38;;;;;;;92.43;45.42;;;15.90;99.90;;;;;;4898083;29;20473;-77
2022/10/17 05:49:03;;;;;;;84.00;43.10;;;15.90;99.90;;;;;;4917614;29;20047;-78
2022/10/17 05:51:29;;;;;;;83.13;42.95;;;15.90;99.90;;;;;;4912221;29;20039;-78
2022/10/17 05:53:55;;;;;;;83.57;45.42;;;15.90;99.90;;;;;;4916790;29;20137;-78
2022/10/17 05:56:20;;;;;;;87.20;43.78;;;15.90;99.90;;;;;;4912646;29;20506;-77
2022/10/17 05:58:46;;;;;;;84.30;43.47;;;15.90;99.90;;;;;;4906462;29;20036;-78
2022/10/17 06:01:12;;;;;;;82.55;42.95;;;15.90;99.90;;;;;;4908710;29;20111;-78
2022/10/17 06:03:38;;;;;;;86.18;43.42;;;15.90;99.90;;;;;;4905432;29;20027;-78
2022/10/17 06:06:06;;;;;;;99.10;44.55;;;16.00;99.90;;;;;;4911004;29;20044;-78
2022/10/17 06:08:31;;;;;;;84.45;43.30;;;16.00;99.90;;;;;;4886084;29;20024;-77
2022/10/17 06:10:57;;;;;;;80.55;41.55;;;16.00;99.90;;;;;;4909434;29;20053;-78
2022/10/17 06:13:23;;;;;;;86.38;42.45;;;16.00;99.90;;;;;;4901527;29;20020;-78
2022/10/17 06:15:48;;;;;;;79.57;43.00;;;15.90;99.90;;;;;;4908856;29;20047;-77
2022/10/17 06:18:16;;;;;;;84.88;44.45;;;15.90;99.90;;;;;;4905974;29;20028;-77
2022/10/17 06:20:42;;;;;;;82.10;40.67;;;15.90;99.90;;;;;;4906135;29;20043;-78
2022/10/17 06:23:08;;;;;;;80.47;42.97;;;15.90;99.90;;;;;;4881268;29;20028;-78
2022/10/17 06:25:33;;;;;;;83.93;42.22;;;16.00;99.90;;;;;;4917454;29;20028;-77
2022/10/17 06:27:59;;;;;;;80.93;41.20;;;16.00;99.90;;;;;;4917545;29;20024;-78
2022/10/17 06:30:25;;;;;;;80.47;41.30;;;16.00;99.90;;;;;;4917149;29;20028;-77
2022/10/17 06:32:52;;;;;;;83.70;42.20;;;16.00;99.90;;;;;;4887433;29;20032;-78
2022/10/17 06:35:18;;;;;;;81.47;41.58;;;16.10;99.90;;;;;;4899350;29;20059;-78
2022/10/17 06:37:44;;;;;;;82.35;43.17;;;16.10;99.90;;;;;;4898835;29;20032;-78
2022/10/17 06:40:11;;;;;;;72.40;40.60;;;16.10;99.90;;;;;;4898699;29;20403;-78
2022/10/17 06:42:37;;;;;;;85.10;42.85;;;16.10;99.90;;;;;;4881605;29;20062;-78
2022/10/17 06:45:04;;;;;;;76.18;40.22;;;16.20;99.90;;;;;;4898221;29;20063;-78
2022/10/17 06:47:30;;;;;;;75.57;41.03;;;16.20;99.90;;;;;;4898198;29;20032;-78
2022/10/17 06:49:56;;;;;;;74.55;39.80;;;16.20;99.90;;;;;;4881727;29;20027;-77
2022/10/17 06:52:22;;;;;;;77.57;41.25;;;16.20;99.90;;;;;;4895399;29;20512;-77
2022/10/17 06:54:47;;;;;;;83.40;42.33;;;16.20;99.90;;;;;;4898402;29;20032;-77
2022/10/17 06:57:13;;;;;;;82.63;41.75;;;16.20;99.90;;;;;;4881862;29;20059;-77
2022/10/17 06:59:39;;;;;;;84.68;42.15;;;16.30;99.90;;;;;;4898861;29;20141;-78
2022/10/17 07:02:05;;;;;;;81.80;43.25;;;16.30;99.90;;;;;;4898757;29;20458;-78
2022/10/17 07:04:31;;;;;;;85.40;43.72;;;16.30;99.90;;;;;;4898642;29;20364;-78
2022/10/17 07:06:56;;;;;;;79.18;41.33;;;16.40;99.90;;;;;;4897078;29;20093;-77
2022/10/17 07:09:23;;;;;;;82.85;42.22;;;16.40;99.90;;;;;;4896888;29;20515;-77
2022/10/17 07:11:48;;;;;;;82.10;40.92;;;16.40;99.90;;;;;;4895757;29;20558;-77
2022/10/17 07:14:14;;;;;;;85.10;41.72;;;16.40;99.90;;;;;;4896629;29;20108;-77
2022/10/17 07:16:40;;;;;;;81.25;42.80;;;16.40;99.90;;;;;;4895755;29;20555;-78
2022/10/17 07:19:05;;;;;;;82.53;40.78;;;16.50;99.90;;;;;;4894988;29;20484;-77
2022/10/17 07:21:31;;;;;;;72.95;39.00;;;16.50;99.90;;;;;;4896174;29;20689;-78
2022/10/17 07:23:57;;;;;;;73.95;40.83;;;16.50;99.90;;;;;;4894701;29;20063;-77
2022/10/17 07:26:23;;;;;;;80.32;40.75;;;16.60;99.90;;;;;;4908099;29;20038;-77
2022/10/17 07:28:52;;;;;;;78.05;42.13;;;16.60;99.90;;;;;;4897685;29;20090;-77
2022/10/17 07:31:19;;;;;;;80.50;39.83;;;16.60;99.90;;;;;;4897268;29;20056;-77
2022/10/17 07:33:45;;;;;;;77.97;40.20;;;16.70;99.90;;;;;;4897809;29;20036;-77
2022/10/17 07:36:12;;;;;;;78.97;40.67;;;16.70;99.90;;;;;;4897733;29;20029;-78
2022/10/17 07:38:38;;;;;;;77.65;39.42;;;16.80;99.90;;;;;;4897438;29;20044;-78
2022/10/17 07:41:06;;;;;;;78.68;39.50;;;16.80;99.90;;;;;;4897319;29;20031;-78
2022/10/17 07:43:32;;;;;;;76.75;38.55;;;16.90;99.90;;;;;;4897622;29;20092;-78
2022/10/17 07:45:59;;;;;;;76.45;39.92;;;16.90;99.90;;;;;;4878181;29;20483;-77
2022/10/17 07:48:25;;;;;;;75.32;40.67;;;17.00;99.90;;;;;;4878390;29;20422;-78
2022/10/17 07:50:50;;;;;;;79.82;40.20;;;17.10;99.90;;;;;;4894459;29;20021;-78
2022/10/17 07:53:17;;;;;;;73.47;38.55;;;17.10;99.90;;;;;;4878288;29;20048;-78
2022/10/17 07:55:45;;;;;;;80.43;40.60;;;17.10;99.90;;;;;;4890287;29;20029;-77
2022/10/17 07:58:12;;;;;;;69.57;38.55;;;17.20;99.90;;;;;;4894478;29;20024;-78
2022/10/17 08:00:38;;;;;;;74.85;39.55;;;17.30;99.90;;;;;;4895660;29;20119;-77
2022/10/17 08:03:04;;;;;;;71.60;37.13;;;17.30;99.90;;;;;;4895217;29;20024;-77
2022/10/17 08:05:31;;;;;;;65.93;36.28;;;17.40;99.90;;;;;;4896055;29;20104;-78
2022/10/17 08:07:56;;;;;;;69.22;37.58;;;17.40;99.90;;;;;;4897851;29;20056;-77
2022/10/17 08:10:27;;;;;;;64.68;36.90;;;17.50;99.90;;;;;;4897634;29;20064;-78
2022/10/17 08:12:56;;;;;;;70.05;36.65;;;17.50;99.90;;;;;;4894723;29;20028;-78
2022/10/17 08:15:25;;;;;;;65.70;36.22;;;17.60;99.90;;;;;;4894788;29;21200;-78
2022/10/17 08:17:51;;;;;;;67.07;34.03;;;17.60;99.90;;;;;;4888230;29;20032;-77
2022/10/17 08:20:17;;;;;;;64.78;34.17;;;17.80;99.90;;;;;;4895215;29;20685;-77
2022/10/17 08:22:49;;;;;;;67.00;36.33;;;17.90;99.90;;;;;;4894780;29;20104;-77
2022/10/17 08:25:15;;;;;;;64.25;34.15;;;18.00;99.90;;;;;;4896894;29;20047;-77
2022/10/17 08:27:41;;;;;;;62.75;34.78;;;18.00;99.90;;;;;;4898443;29;20487;-77
2022/10/17 08:30:10;;;;;;;72.10;37.80;;;18.00;99.90;;;;;;4898083;29;20040;-78
2022/10/17 08:32:35;;;;;;;61.08;35.30;;;18.10;99.90;;;;;;4898343;29;20116;-78
2022/10/17 08:35:01;;;;;;;69.57;35.35;;;18.10;99.90;;;;;;4898210;29;20115;-78
2022/10/17 08:37:28;;;;;;;66.20;36.55;;;18.10;99.90;;;;;;4897111;29;20491;-78
2022/10/17 08:39:54;;;;;;;74.63;39.42;;;18.10;99.90;;;;;;4898032;29;20411;-78
2022/10/17 08:42:46;;;;;;;67.88;35.97;;;18.10;99.90;;;;;;4880742;29;20029;-77
2022/10/17 08:45:44;;;;;;;75.55;38.95;;;18.10;99.90;;;;;;4859944;29;20495;-77
2022/10/17 08:48:14;;;;;;;69.53;36.75;;;18.10;99.90;;;;;;4881204;29;20024;-78
2022/10/17 08:50:58;;;;;;;65.22;36.50;;;18.10;99.90;;;;;;4900107;29;20067;-74
2022/10/17 08:53:43;;;;;;;70.40;35.50;;;18.20;99.90;;;;;;4895521;29;20032;-75
2022/10/17 08:56:42;;;;;;;66.00;38.53;;;18.20;99.90;;;;;;4896279;29;20441;-74
2022/10/17 08:59:27;;;;;;;64.90;33.95;;;18.30;99.90;;;;;;4896344;29;20024;-74
2022/10/17 09:02:07;;;;;;;59.22;33.85;;;18.30;99.90;;;;;;4894883;29;20339;-75
2022/10/17 09:05:00;;;;;;;65.32;35.25;;;18.30;99.90;;;;;;4893173;29;20455;-76
2022/10/17 09:07:42;;;;;;;67.78;37.45;;;18.30;99.90;;;;;;4893929;29;20048;-75
2022/10/17 09:10:30;;;;;;;74.00;38.17;;;18.30;99.90;;;;;;4897515;29;20059;-75
2022/10/17 09:13:23;;;;;;;72.88;38.72;;;18.40;99.90;;;;;;4879215;29;20032;-75
2022/10/17 09:16:03;;;;;;;77.25;38.90;;;18.50;99.90;;;;;;4897554;29;20096;-76
2022/10/17 09:18:42;;;;;;;71.35;37.78;;;18.50;99.90;;;;;;4879054;29;20127;-75
2022/10/17 09:21:25;;;;;;;68.10;34.75;;;18.50;99.90;;;;;;4879121;29;20025;-74
2022/10/17 09:23:59;;;;;;;66.88;32.78;;;18.50;99.90;;;;;;4864841;29;20175;-74
2022/10/17 09:26:28;;;;;;;66.18;36.45;;;18.50;99.90;;;;;;4881701;29;20036;-76
2022/10/17 09:28:59;;;;;;;57.92;33.05;;;18.50;99.90;;;;;;4881902;29;20487;-76
2022/10/17 09:31:31;;;;;;;64.55;35.35;;;18.50;99.90;;;;;;4881680;29;20035;-76
2022/10/17 09:34:00;;;;;;;70.43;39.35;;;18.60;99.90;;;;;;4878856;29;20191;-74
2022/10/17 09:36:28;;;;;;;72.43;40.08;;;18.60;99.90;;;;;;4877572;29;20510;-74
2022/10/17 09:39:13;;;;;;;69.90;35.58;;;18.60;99.90;;;;;;4878629;29;20116;-74
2022/10/17 09:41:43;;;;;;;65.97;35.45;;;18.70;99.90;;;;;;4878601;29;20488;-74
2022/10/17 09:44:14;;;;;;;63.10;34.72;;;18.70;99.90;;;;;;4878565;29;20040;-75
2022/10/17 09:46:48;;;;;;;61.80;33.40;;;18.70;99.90;;;;;;4878381;29;20033;-75
2022/10/17 09:49:24;;;;;;;69.45;34.88;;;18.80;99.90;;;;;;4878253;29;20032;-74
2022/10/17 09:51:50;;;;;;;72.75;38.60;;;18.70;99.90;;;;;;4878045;29;20100;-74
2022/10/17 09:54:27;;;;;;;73.03;37.50;;;18.70;99.90;;;;;;4878030;29;20089;-75
2022/10/17 09:57:04;;;;;;;72.53;37.00;;;18.80;99.90;;;;;;4878423;29;20108;-74
2022/10/17 09:59:43;;;;;;;69.78;39.25;;;18.90;99.90;;;;;;4895624;29;20051;-74
2022/10/17 10:02:11;;;;;;;78.13;38.35;;;18.90;99.90;;;;;;4898070;29;20100;-75
2022/10/17 10:04:50;;;;;;;79.70;40.83;;;19.00;99.90;;;;;;4898209;29;20028;-74
2022/10/17 10:07:18;;;;;;;70.88;39.22;;;19.00;99.90;;;;;;4881218;29;20414;-74
2022/10/17 10:09:46;;;;;;;67.72;37.50;;;19.10;99.90;;;;;;4897974;29;20040;-74
2022/10/17 10:12:30;;;;;;;73.78;37.67;;;19.10;99.90;;;;;;4898033;29;20025;-74
2022/10/17 10:14:56;;;;;;;68.78;37.47;;;19.10;99.90;;;;;;4897985;29;20039;-74
2022/10/17 10:17:25;;;;;;;78.55;40.90;;;19.10;99.90;;;;;;4897999;29;20029;-74
2022/10/17 10:19:51;;;;;;;76.22;38.92;;;19.20;99.90;;;;;;4897941;29;20392;-75
2022/10/17 10:22:19;;;;;;;78.20;38.80;;;19.20;99.90;;;;;;4897385;29;20494;-75
2022/10/17 10:24:47;;;;;;;72.13;40.40;;;19.20;99.90;;;;;;4897681;29;20072;-75
2022/10/17 10:27:15;;;;;;;72.28;38.55;;;19.30;99.90;;;;;;4897170;29;20039;-75
2022/10/17 10:29:51;;;;;;;72.57;39.40;;;19.30;99.90;;;;;;4898045;29;20029;-75
2022/10/17 10:32:30;;;;;;;69.38;38.53;;;19.40;99.90;;;;;;4888127;29;20133;-75
2022/10/17 10:34:57;;;;;;;73.50;37.28;;;19.40;99.90;;;;;;4894312;29;20076;-75
2022/10/17 10:37:25;;;;;;;72.50;37.72;;;19.40;99.90;;;;;;4896764;29;20033;-75
2022/10/17 10:39:58;;;;;;;70.25;37.30;;;19.40;99.90;;;;;;4896325;29;20402;-75
2022/10/17 10:42:36;;;;;;;76.13;39.13;;;19.50;99.90;;;;;;4896216;29;20403;-74
2022/10/17 10:45:23;;;;;;;74.03;38.53;;;19.50;99.90;;;;;;4896943;29;20032;-74
2022/10/17 10:48:19;;;;;;;67.00;37.05;;;19.60;99.90;;;;;;4882266;29;20481;-75
2022/10/17 10:50:59;;;;;;;73.32;38.25;;;19.60;99.90;;;;;;4882867;29;20048;-75
2022/10/17 10:53:49;;;;;;;73.90;38.35;;;19.70;99.90;;;;;;4897658;29;20395;-74
2022/10/17 10:56:32;;;;;;;71.65;38.15;;;19.60;99.90;;;;;;4897587;29;20084;-74
2022/10/17 10:59:08;;;;;;;73.18;40.40;;;19.70;99.90;;;;;;4896380;29;20028;-75
2022/10/17 11:01:53;;;;;;;75.63;40.13;;;19.70;99.90;;;;;;4896856;29;20040;-74
2022/10/17 11:04:38;;;;;;;76.40;40.28;;;19.80;99.90;;;;;;4896821;29;20021;-74
2022/10/17 11:07:27;;;;;;;70.50;36.65;;;19.80;99.90;;;;;;4897227;29;20087;-74
2022/10/17 11:09:52;;;;;;;68.95;39.47;;;19.80;99.90;;;;;;4896718;29;20107;-74
2022/10/17 11:12:32;;;;;;;72.20;38.55;;;19.90;99.90;;;;;;4895045;29;20104;-75
2022/10/17 11:15:07;;;;;;;70.80;38.40;;;19.90;99.90;;;;;;4895167;29;20037;-74
2022/10/17 11:17:52;;;;;;;76.50;40.08;;;20.00;99.90;;;;;;4878214;29;20127;-74
2022/10/17 11:20:37;;;;;;;79.15;38.38;;;20.00;99.90;;;;;;4878213;29;20037;-74
2022/10/17 11:23:19;;;;;;;72.18;38.78;;;20.00;99.90;;;;;;4895023;29;20025;-74
2022/10/17 11:25:47;;;;;;;66.30;37.88;;;20.10;99.90;;;;;;4896049;29;20452;-74
2022/10/17 11:28:18;;;;;;;69.05;37.70;;;20.20;99.90;;;;;;4897052;29;20103;-74
2022/10/17 11:30:50;;;;;;;75.32;39.97;;;20.20;99.90;;;;;;4880191;29;20032;-74
2022/10/17 11:33:24;;;;;;;78.22;38.50;;;20.20;99.90;;;;;;4896953;29;20440;-74
2022/10/17 11:35:52;;;;;;;73.68;38.25;;;20.30;99.90;;;;;;4896897;29;20040;-74
2022/10/17 11:38:34;;;;;;;77.68;38.67;;;20.30;99.90;;;;;;4880090;29;20392;-74
2022/10/17 11:41:02;;;;;;;67.38;37.78;;;20.40;99.90;;;;;;4896614;29;20394;-74
2022/10/17 11:43:35;;;;;;;72.75;38.25;;;20.40;99.90;;;;;;4896514;29;20499;-74
2022/10/17 11:46:17;;;;;;;70.82;38.40;;;20.50;99.90;;;;;;4896174;29;20387;-74
2022/10/17 11:48:58;;;;;;;68.28;38.03;;;20.50;99.90;;;;;;4899804;29;20396;-74
2022/10/17 11:51:23;;;;;;;65.65;36.08;;;20.50;99.90;;;;;;4895475;29;20451;-75
2022/10/17 11:54:25;;;;;;;68.85;36.35;;;20.60;99.90;;;;;;4895095;29;20029;-75
2022/10/17 11:57:28;;;;;;;65.88;35.60;;;20.70;99.90;;;;;;4890411;29;20048;-74
2022/10/17 11:59:59;;;;;;;67.82;36.78;;;20.70;99.90;;;;;;4892562;29;20033;-74
2022/10/17 12:02:40;;;;;;;67.50;37.45;;;20.70;99.90;;;;;;4895168;29;20056;-74
2022/10/17 12:05:30;;;;;;;73.15;36.78;;;20.70;99.90;;;;;;4895005;29;20589;-74
2022/10/17 12:08:07;;;;;;;67.05;36.05;;;20.90;99.90;;;;;;4892198;29;20399;-74
2022/10/17 12:10:55;;;;;;;70.70;38.50;;;20.90;99.90;;;;;;4893092;29;20032;-74
2022/10/17 12:13:27;;;;;;;66.13;36.75;;;20.90;99.90;;;;;;4894151;29;20462;-74
2022/10/17 12:16:11;;;;;;;71.65;35.42;;;20.80;99.90;;;;;;4892905;29;20024;-74
2022/10/17 12:18:37;;;;;;;66.53;35.83;;;20.90;99.90;;;;;;4893442;29;20025;-74
2022/10/17 12:21:03;;;;;;;67.43;36.08;;;21.00;99.90;;;;;;4894951;29;20542;-74
2022/10/17 12:23:30;;;;;;;69.70;37.03;;;21.00;99.90;;;;;;4894829;29;20096;-74
2022/10/17 12:26:00;;;;;;;63.28;34.78;;;21.10;99.90;;;;;;4894902;29;20472;-74
2022/10/17 12:28:42;;;;;;;61.42;33.65;;;21.10;99.90;;;;;;4894906;29;20029;-74
2022/10/17 12:31:17;;;;;;;61.10;32.97;;;21.10;99.90;;;;;;4877970;29;20103;-74
2022/10/17 12:33:55;;;;;;;64.45;33.25;;;21.10;99.90;;;;;;4895285;29;20377;-74
2022/10/17 12:36:21;;;;;;;58.92;34.05;;;21.20;99.90;;;;;;4894658;29;20025;-74
2022/10/17 12:39:00;;;;;;;57.92;33.85;;;21.20;99.90;;;;;;4895452;29;20035;-74
2022/10/17 12:41:37;;;;;;;58.60;32.20;;;21.20;99.90;;;;;;4895653;29;20107;-74
2022/10/17 12:44:12;;;;;;;61.80;34.13;;;21.20;99.90;;;;;;4895656;29;20114;-74
2022/10/17 12:46:50;;;;;;;69.97;35.28;;;21.20;99.90;;;;;;4896019;29;20156;-74